Latest METARs, TAFs and NOTAMs for SKCL


---------------------------------------------------------------------------
	(OBSERVATIONS)
SKCL 231300Z 25003KT 9999 FEW023 BKN090 23/18 A2995=
SKCL 231200Z 25003KT 9999 FEW023 BKN080 21/18 A2995=
SKCL 231100Z 00000KT 9999 SCT023 SCT090 21/19 A2992=
---------------------------------------------------------------------------
	(TERMINAL AREA FORECAST)
SKCL 231000Z 231212 01004KT 9999 FEW017 SCT100
    BECMG 2314/2316 34010KT SCT020 SCT080
    PROB30 TEMPO 2319/2324 8000 VCSH BKN015
    TX32/2319Z TN20/2411Z=
---------------------------------------------------------------------------
	(NOTAMS)


SKCL A0951/14 APN AND APN CARGO WIP, EXER CTN. H24, 15 APR 15:06
    2014 UNTIL 29 JUL 23:59 2014. CREATED: 15 APR 16:02 2014

SKCL A0952/14 STRIP RWY 01/19 WIP, EXER CTN. 1200-2200, 15 APR
    16:16 2014 UNTIL 29 JUL 22:00 2014. CREATED: 15 APR 16:21
    2014

SKCL A1121/14 SEQUENCED FLG LGT RWY 01 U/S. 02 MAY 14:10 2014
    UNTIL 04 AUG 23:59 2014 ESTIMATED. CREATED: 02 MAY 14:40
    2014

SKCL A1138/14 RWY 01/19 TURNING BAY LTD, ACFT PROHIBITED PARALLEL
    OR ONE SURPASSES THE OTHER ACFT, EXER CTN. H24, 03 MAY 19:15
    2014 UNTIL 06 AUG 23:59 2014 ESTIMATED. CREATED: 03 MAY 20:20
    2014

SKCL A1331/14 MOVEMENT AND LDG AREA WITHOUT VERTICAL SIGNALLING,
    EXER CTN. H24, 21 MAY 18:50 2014 UNTIL 21 AUG 23:59 2014
    ESTIMATED. CREATED: 21 MAY 18:56 2014

SKCL A1389/14 TWY A,B,C,C1,D,E,F,G WIP, EXER CTN. H24, 01 JUN
    13:00 2014 UNTIL 29 JUL 23:59 2014. CREATED: 26 MAY 21:49
    2014

SKCL A1600/14 REMOTE ACFT STAND ZULU POINT INSTL COORD 033320,90W0762252,12W
    REF AIP COLOMBIA 2-SKCL-ADC. 09 JUN 20:30 2014 UNTIL PERM.
    CREATED: 02 JUL 12:25 2014

SKCL A1750/14 AD CLSD BY SIMULATION. 1630-1730, 10 SEP 16:30
    2014 UNTIL 10 SEP 17:30 2014. CREATED: 22 JUN 14:25 2014

SKCL V0066/14 [DOD PROCEDURAL NOTAM] INSTRUMENT APPROACH PROCEDURE
    CHANGED DUE TO HOST CHANGE: ILS RWY 01 AMDT 1: MSA 120-200
    11700FT, 200-350 16100FT, 350-120 15300FT. FAF CROSSING ALTITUDE
    5700FT. MAP 7.1 DME/CLO. VOR RWY 19 ORIG; ANKIN 5A, 5B DEP;
    BUN 6A DEP; BUN 6C DEP - MSA 120-200 11700FT, 200-350 16100FT,
    350-120 15300FT. WIE. EXPECT DOD FLIP UPDATE 2014-05-29.
    29 MAY 23:55 2014 UNTIL 24 JUL 23:59 2014. CREATED: 29 MAY
    23:57 2014

---------------------------------------------------------------------------